Time;durP1;ratioP1;P1;durP2;ratioP2;P2;SDS_P1;SDS_P2;PMS_P1;PMS_P2;Temp;Humidity;BMP_temperature;BMP_pressure;BME280_temperature;BME280_humidity;BME280_pressure;Samples;Min_cycle;Max_cycle;Signal;HPM_P1;HPM_P2
2023/09/23 00:00:08;;;;;;;0.80;0.60;;;13.70;99.90;;;;;;5051697;28;20463;-71
2023/09/23 00:02:36;;;;;;;1.37;0.70;;;13.70;99.90;;;;;;5051629;28;20419;-70
2023/09/23 00:05:02;;;;;;;1.17;0.60;;;13.70;99.90;;;;;;5051573;28;20483;-70
2023/09/23 00:07:28;;;;;;;2.20;0.50;;;13.70;99.90;;;;;;5033978;28;20426;-72
2023/09/23 00:09:54;;;;;;;2.60;0.67;;;13.70;99.90;;;;;;5051831;28;20859;-71
2023/09/23 00:12:20;;;;;;;3.90;0.80;;;13.70;99.90;;;;;;5051603;28;20418;-72
2023/09/23 00:14:46;;;;;;;5.13;0.60;;;13.70;99.90;;;;;;5051394;28;20451;-71
2023/09/23 00:17:11;;;;;;;1.20;0.70;;;13.60;99.90;;;;;;5051400;28;20241;-71
2023/09/23 00:19:40;;;;;;;1.10;0.60;;;13.70;99.90;;;;;;5051340;28;20191;-71
2023/09/23 00:22:05;;;;;;;2.30;0.93;;;13.60;99.90;;;;;;5051378;28;20185;-71
2023/09/23 00:24:31;;;;;;;1.90;0.60;;;13.70;99.90;;;;;;5051330;28;21045;-71
2023/09/23 00:26:59;;;;;;;2.93;0.60;;;13.60;99.90;;;;;;5051342;28;20187;-71
2023/09/23 00:29:27;;;;;;;2.10;0.67;;;13.60;99.90;;;;;;5051332;28;20176;-71
2023/09/23 00:31:54;;;;;;;3.83;0.70;;;13.70;99.90;;;;;;5051706;28;20513;-72
2023/09/23 00:34:20;;;;;;;7.30;1.07;;;13.70;99.90;;;;;;5049899;28;20943;-72
2023/09/23 00:36:46;;;;;;;2.17;0.97;;;13.70;99.90;;;;;;5051191;28;20433;-71
2023/09/23 00:39:13;;;;;;;1.27;0.50;;;13.70;99.90;;;;;;5051174;28;20422;-71
2023/09/23 00:41:41;;;;;;;1.10;0.60;;;13.70;99.90;;;;;;5049704;28;20223;-71
2023/09/23 00:44:07;;;;;;;0.87;0.50;;;13.70;99.90;;;;;;5051114;28;20434;-71
2023/09/23 00:46:35;;;;;;;3.47;1.10;;;13.70;99.90;;;;;;5051041;28;20433;-71
2023/09/23 00:49:01;;;;;;;1.33;0.87;;;13.70;99.90;;;;;;5051119;28;20180;-71
2023/09/23 00:51:30;;;;;;;0.90;0.70;;;13.60;99.90;;;;;;5051269;28;20794;-71
2023/09/23 00:53:57;;;;;;;1.67;0.70;;;13.60;99.90;;;;;;5049833;28;20442;-71
2023/09/23 00:56:24;;;;;;;4.27;0.80;;;13.60;99.90;;;;;;5050972;28;20851;-71
2023/09/23 00:58:50;;;;;;;2.30;0.80;;;13.60;99.90;;;;;;5051044;28;20418;-71
2023/09/23 01:01:16;;;;;;;1.10;0.80;;;13.50;99.90;;;;;;5050946;28;20543;-71
2023/09/23 01:03:43;;;;;;;1.13;0.60;;;13.40;99.90;;;;;;5051005;28;20418;-71
2023/09/23 01:06:15;;;;;;;1.03;0.70;;;13.40;99.90;;;;;;5049617;28;20517;-71
2023/09/23 01:08:45;;;;;;;1.70;1.03;;;13.40;99.90;;;;;;5051003;28;20430;-72
2023/09/23 01:11:14;;;;;;;0.90;0.60;;;13.40;99.90;;;;;;5049712;28;20433;-71
2023/09/23 01:13:42;;;;;;;1.00;0.60;;;13.40;99.90;;;;;;5050850;28;20908;-71
2023/09/23 01:16:12;;;;;;;1.83;0.70;;;13.50;99.90;;;;;;5050885;28;20518;-71
2023/09/23 01:18:49;;;;;;;13.03;0.87;;;13.40;99.90;;;;;;5050951;28;20441;-71
2023/09/23 01:21:15;;;;;;;2.07;0.80;;;13.30;99.90;;;;;;5051208;28;20477;-71
2023/09/23 01:23:43;;;;;;;6.40;0.70;;;13.40;99.90;;;;;;5054589;28;20834;-71
2023/09/23 01:26:11;;;;;;;6.43;1.07;;;13.40;99.90;;;;;;5054574;28;20911;-71
2023/09/23 01:28:37;;;;;;;2.90;0.83;;;13.30;99.90;;;;;;5053348;28;20448;-71
2023/09/23 01:31:04;;;;;;;1.33;0.67;;;13.30;99.90;;;;;;5054515;28;20425;-71
2023/09/23 01:33:30;;;;;;;1.00;0.70;;;13.30;99.90;;;;;;5054608;28;20420;-71
2023/09/23 01:36:02;;;;;;;1.43;0.90;;;13.20;99.90;;;;;;5054372;28;20814;-71
2023/09/23 01:38:29;;;;;;;1.13;0.70;;;13.20;99.90;;;;;;5054428;28;20188;-71
2023/09/23 01:40:55;;;;;;;3.27;0.80;;;13.10;99.90;;;;;;5052999;28;20983;-71
2023/09/23 01:43:20;;;;;;;3.37;0.93;;;13.10;99.90;;;;;;5053078;28;20423;-71
2023/09/23 01:45:46;;;;;;;2.40;0.63;;;13.10;99.90;;;;;;5054271;28;20211;-71
2023/09/23 01:48:12;;;;;;;5.00;0.90;;;13.10;99.90;;;;;;5054415;28;20173;-71
2023/09/23 01:50:37;;;;;;;3.27;1.10;;;13.10;99.90;;;;;;5054206;28;20572;-71
2023/09/23 01:53:04;;;;;;;1.80;0.73;;;13.10;99.90;;;;;;5054114;28;20187;-71
2023/09/23 01:55:29;;;;;;;3.80;0.83;;;13.10;99.90;;;;;;5053809;28;20257;-71
2023/09/23 01:57:55;;;;;;;1.67;0.80;;;13.10;99.90;;;;;;5054102;28;20434;-71
2023/09/23 02:00:28;;;;;;;1.87;0.80;;;13.00;99.90;;;;;;5053991;28;20212;-71
2023/09/23 02:02:55;;;;;;;1.70;0.60;;;12.90;99.90;;;;;;5052689;28;20418;-71
2023/09/23 02:05:27;;;;;;;1.40;0.70;;;12.90;99.90;;;;;;5053921;28;20465;-71
2023/09/23 02:07:53;;;;;;;3.10;0.80;;;12.80;99.90;;;;;;5053895;28;20900;-71
2023/09/23 02:10:21;;;;;;;3.43;0.90;;;12.70;99.90;;;;;;5053781;28;20419;-71
2023/09/23 02:12:47;;;;;;;1.63;0.70;;;12.70;99.90;;;;;;5052446;28;20426;-71
2023/09/23 02:15:14;;;;;;;1.10;0.70;;;12.60;99.90;;;;;;5053609;28;20788;-71
2023/09/23 02:17:44;;;;;;;1.47;0.53;;;12.60;99.90;;;;;;5053669;28;20194;-71
2023/09/23 02:20:21;;;;;;;1.10;0.63;;;12.50;99.90;;;;;;5052160;28;20507;-71
2023/09/23 02:22:54;;;;;;;1.10;0.90;;;12.50;99.90;;;;;;5052468;28;20915;-71
2023/09/23 02:25:27;;;;;;;1.00;0.80;;;12.50;99.90;;;;;;5053512;28;20502;-71
2023/09/23 02:27:53;;;;;;;1.73;0.63;;;12.50;99.90;;;;;;5053542;28;20411;-71
2023/09/23 02:30:19;;;;;;;1.20;0.60;;;12.50;99.90;;;;;;5053369;28;20446;-71
2023/09/23 02:32:46;;;;;;;2.13;0.70;;;12.40;99.90;;;;;;5052248;28;20456;-71
2023/09/23 02:35:15;;;;;;;0.90;0.60;;;12.40;99.90;;;;;;5051971;28;20218;-71
2023/09/23 02:37:45;;;;;;;1.30;0.80;;;12.50;99.90;;;;;;5053295;28;20477;-71
2023/09/23 02:40:12;;;;;;;1.63;0.50;;;12.40;99.90;;;;;;5053300;28;20982;-71
2023/09/23 02:42:42;;;;;;;3.33;1.20;;;12.40;99.90;;;;;;5051877;28;20497;-71
2023/09/23 02:45:09;;;;;;;1.23;0.80;;;12.40;99.90;;;;;;5053102;28;20429;-71
2023/09/23 02:47:38;;;;;;;4.80;0.70;;;12.30;99.90;;;;;;5053084;28;20426;-71
2023/09/23 02:50:13;;;;;;;3.63;0.70;;;12.30;99.90;;;;;;5053081;28;20447;-71
2023/09/23 02:52:39;;;;;;;2.37;0.70;;;12.30;99.90;;;;;;5053071;28;20489;-71
2023/09/23 02:55:07;;;;;;;0.90;0.50;;;12.20;99.90;;;;;;5052939;28;20453;-71
2023/09/23 02:57:35;;;;;;;1.07;0.70;;;12.20;99.90;;;;;;5051662;28;20497;-71
2023/09/23 03:00:12;;;;;;;1.17;0.60;;;12.10;99.90;;;;;;5051484;28;20469;-71
2023/09/23 03:02:38;;;;;;;1.00;0.83;;;12.10;99.90;;;;;;5052928;28;20421;-71
2023/09/23 03:05:07;;;;;;;1.50;1.03;;;12.10;99.90;;;;;;5051545;28;20445;-71
2023/09/23 03:07:33;;;;;;;1.13;0.67;;;12.20;99.90;;;;;;5035266;28;20433;-71
2023/09/23 03:10:01;;;;;;;2.40;0.70;;;12.10;99.90;;;;;;5051509;28;20426;-71
2023/09/23 03:12:29;;;;;;;3.70;0.60;;;12.20;99.90;;;;;;5052658;28;20649;-71
2023/09/23 03:14:56;;;;;;;2.33;0.87;;;12.10;99.90;;;;;;5051317;28;20558;-71
2023/09/23 03:17:22;;;;;;;1.57;0.80;;;12.10;99.90;;;;;;5051208;28;20950;-71
2023/09/23 03:19:51;;;;;;;1.00;0.60;;;12.00;99.90;;;;;;5052440;28;20418;-71
2023/09/23 03:22:20;;;;;;;1.20;0.53;;;12.00;99.90;;;;;;5052468;28;20187;-71
2023/09/23 03:24:48;;;;;;;2.60;0.77;;;12.00;99.90;;;;;;5051120;28;20517;-71
2023/09/23 03:27:14;;;;;;;1.10;0.57;;;12.00;99.90;;;;;;5050939;28;20426;-71
2023/09/23 03:29:40;;;;;;;2.37;1.00;;;12.00;99.90;;;;;;5052313;28;20440;-71
2023/09/23 03:32:06;;;;;;;0.80;0.40;;;12.00;99.90;;;;;;5052232;28;20441;-71
2023/09/23 03:34:32;;;;;;;3.43;0.70;;;12.00;99.90;;;;;;5052176;28;20201;-72
2023/09/23 03:36:58;;;;;;;1.43;0.50;;;11.90;99.90;;;;;;5052165;28;20501;-71
2023/09/23 03:39:24;;;;;;;1.57;0.50;;;12.00;99.90;;;;;;5052116;28;20189;-71
2023/09/23 03:41:50;;;;;;;1.50;0.80;;;12.00;99.90;;;;;;5034141;28;20479;-71
2023/09/23 03:44:16;;;;;;;1.30;0.67;;;11.90;99.90;;;;;;5051596;28;20426;-71
2023/09/23 03:46:50;;;;;;;2.30;0.80;;;11.90;99.90;;;;;;5052020;28;20183;-71
2023/09/23 03:49:17;;;;;;;2.50;0.60;;;12.00;99.90;;;;;;5051878;28;20422;-71
2023/09/23 03:51:43;;;;;;;1.30;0.60;;;11.90;99.90;;;;;;5050690;28;20421;-71
2023/09/23 03:54:09;;;;;;;0.90;0.50;;;11.90;99.90;;;;;;5050486;28;20441;-71
2023/09/23 03:56:35;;;;;;;1.13;0.60;;;11.90;99.90;;;;;;5051716;28;20498;-71
2023/09/23 03:59:01;;;;;;;1.07;0.73;;;12.00;99.90;;;;;;5051829;28;20215;-71
2023/09/23 04:01:26;;;;;;;1.37;0.80;;;11.90;99.90;;;;;;5052140;28;20243;-71
2023/09/23 04:03:52;;;;;;;1.10;0.60;;;11.90;99.90;;;;;;5051534;28;20471;-71
2023/09/23 04:06:18;;;;;;;0.90;0.60;;;11.90;99.90;;;;;;5051686;28;20171;-71
2023/09/23 04:08:44;;;;;;;1.17;0.83;;;12.00;99.90;;;;;;5050337;28;20183;-71
2023/09/23 04:11:10;;;;;;;3.07;0.80;;;11.90;99.90;;;;;;5051624;28;20429;-71
2023/09/23 04:13:39;;;;;;;2.50;0.60;;;12.00;99.90;;;;;;5051480;28;20661;-71
2023/09/23 04:16:05;;;;;;;0.90;0.67;;;12.00;99.90;;;;;;5050234;28;20517;-71
2023/09/23 04:18:31;;;;;;;1.10;0.70;;;12.00;99.90;;;;;;5051493;28;20512;-71
2023/09/23 04:20:57;;;;;;;2.40;1.00;;;12.00;99.90;;;;;;5051404;28;20913;-71
2023/09/23 04:23:23;;;;;;;1.77;0.70;;;12.00;99.90;;;;;;5051423;28;20410;-71
2023/09/23 04:25:52;;;;;;;1.30;0.80;;;12.00;99.90;;;;;;5051347;28;20476;-71
2023/09/23 04:28:18;;;;;;;4.40;0.70;;;12.10;99.90;;;;;;5050063;28;20176;-71
2023/09/23 04:30:44;;;;;;;0.83;0.50;;;12.00;99.90;;;;;;5051352;28;20425;-71
2023/09/23 04:33:12;;;;;;;1.17;0.60;;;11.90;99.90;;;;;;5051742;28;20475;-71
2023/09/23 04:35:38;;;;;;;1.10;0.70;;;12.00;99.90;;;;;;5051221;28;20437;-71
2023/09/23 04:38:04;;;;;;;0.90;0.50;;;12.10;99.90;;;;;;5050031;28;20414;-71
2023/09/23 04:40:29;;;;;;;3.87;0.60;;;12.00;99.90;;;;;;5051492;28;20958;-71
2023/09/23 04:42:55;;;;;;;1.00;0.63;;;12.00;99.90;;;;;;5051310;28;20180;-71
2023/09/23 04:45:20;;;;;;;3.40;0.80;;;12.00;99.90;;;;;;5051178;28;20204;-71
2023/09/23 04:47:50;;;;;;;1.30;0.77;;;12.00;99.90;;;;;;5049794;28;20201;-71
2023/09/23 04:50:23;;;;;;;2.90;0.60;;;12.00;99.90;;;;;;5049778;28;20184;-71
2023/09/23 04:52:50;;;;;;;2.30;0.90;;;11.90;99.90;;;;;;5049906;28;20453;-71
2023/09/23 04:55:16;;;;;;;1.20;0.50;;;11.90;99.90;;;;;;5051028;28;20430;-71
2023/09/23 04:57:42;;;;;;;1.70;0.93;;;11.90;99.90;;;;;;5054984;28;20559;-70
2023/09/23 05:00:10;;;;;;;0.83;0.60;;;11.80;99.90;;;;;;5055111;28;20549;-71
2023/09/23 05:02:39;;;;;;;1.57;0.67;;;11.80;99.90;;;;;;5054158;28;20827;-71
2023/09/23 05:05:05;;;;;;;1.33;0.87;;;11.70;99.90;;;;;;5053737;28;20440;-71
2023/09/23 05:07:30;;;;;;;1.30;0.50;;;11.60;99.90;;;;;;5055103;28;20513;-71
2023/09/23 05:09:56;;;;;;;1.83;0.67;;;11.50;99.90;;;;;;5055066;28;20416;-71
2023/09/23 05:12:23;;;;;;;2.80;0.60;;;11.40;99.90;;;;;;5055013;28;20180;-71
2023/09/23 05:14:49;;;;;;;1.33;0.70;;;11.40;99.90;;;;;;5053553;28;20195;-71
2023/09/23 05:17:15;;;;;;;2.40;0.70;;;11.40;99.90;;;;;;5054800;28;20421;-71
2023/09/23 05:19:42;;;;;;;5.20;0.60;;;11.40;99.90;;;;;;5053321;28;20185;-73
2023/09/23 05:22:10;;;;;;;1.10;0.57;;;11.40;99.90;;;;;;5054711;28;20417;-71
2023/09/23 05:24:36;;;;;;;1.50;0.70;;;11.30;99.90;;;;;;5054674;28;20469;-71
2023/09/23 05:27:02;;;;;;;1.00;0.77;;;11.40;99.90;;;;;;5054681;28;20988;-71
2023/09/23 05:29:28;;;;;;;5.90;0.60;;;11.30;99.90;;;;;;5036820;28;20864;-71
2023/09/23 05:31:53;;;;;;;0.97;0.70;;;11.30;99.90;;;;;;5054585;28;20445;-71
2023/09/23 05:34:19;;;;;;;4.37;1.03;;;11.40;99.90;;;;;;5036468;28;20230;-71
2023/09/23 05:36:46;;;;;;;1.60;0.70;;;11.30;99.90;;;;;;5054468;28;20187;-70
2023/09/23 05:39:18;;;;;;;1.00;0.50;;;11.40;99.90;;;;;;5054430;28;20733;-70
2023/09/23 05:41:43;;;;;;;1.93;0.60;;;11.40;99.90;;;;;;5052986;28;20492;-70
2023/09/23 05:44:09;;;;;;;1.63;0.80;;;11.40;99.90;;;;;;5054193;28;20491;-71
2023/09/23 05:46:37;;;;;;;2.50;0.70;;;11.50;99.90;;;;;;5036418;28;20596;-71
2023/09/23 05:49:05;;;;;;;1.77;0.70;;;11.60;99.90;;;;;;5054295;28;20171;-71
2023/09/23 05:51:33;;;;;;;2.60;0.70;;;11.70;99.90;;;;;;5054186;28;20416;-71
2023/09/23 05:53:59;;;;;;;2.60;0.80;;;11.70;99.90;;;;;;5054155;28;20464;-70
2023/09/23 05:56:25;;;;;;;0.90;0.50;;;11.70;99.90;;;;;;5053996;28;20448;-71
2023/09/23 05:58:51;;;;;;;3.53;0.70;;;11.70;99.90;;;;;;5052767;28;20417;-71
2023/09/23 06:01:16;;;;;;;2.30;0.70;;;11.80;99.90;;;;;;5053978;28;20214;-71
2023/09/23 06:03:42;;;;;;;2.33;0.73;;;11.80;99.90;;;;;;5052553;28;20190;-71
2023/09/23 06:06:08;;;;;;;2.17;0.60;;;11.80;99.90;;;;;;5053929;28;20200;-71
2023/09/23 06:08:34;;;;;;;2.40;0.83;;;11.80;99.90;;;;;;5053645;28;20554;-70
2023/09/23 06:11:04;;;;;;;4.30;0.70;;;11.90;99.90;;;;;;5053823;28;20429;-71
2023/09/23 06:13:33;;;;;;;0.80;0.53;;;12.00;99.90;;;;;;5036414;28;20198;-71
2023/09/23 06:16:05;;;;;;;1.10;0.70;;;12.10;99.90;;;;;;5053693;28;20417;-70
2023/09/23 06:18:33;;;;;;;2.60;0.70;;;12.20;99.90;;;;;;5053722;28;20912;-71
2023/09/23 06:21:03;;;;;;;4.00;0.67;;;12.10;99.90;;;;;;5053572;28;20471;-71
2023/09/23 06:23:29;;;;;;;1.50;0.70;;;12.10;99.90;;;;;;5053610;28;20440;-71
2023/09/23 06:25:56;;;;;;;1.60;0.63;;;12.20;99.90;;;;;;5053483;28;20466;-71
2023/09/23 06:28:24;;;;;;;1.43;0.60;;;12.20;99.90;;;;;;5052174;28;20665;-71
2023/09/23 06:30:50;;;;;;;4.73;0.60;;;12.20;99.90;;;;;;5035458;28;20425;-71
2023/09/23 06:33:16;;;;;;;2.73;0.90;;;12.30;99.90;;;;;;5053465;28;20437;-71
2023/09/23 06:35:42;;;;;;;0.90;0.50;;;12.30;99.90;;;;;;5053449;28;20898;-71
2023/09/23 06:38:07;;;;;;;2.87;0.63;;;12.40;99.90;;;;;;5053457;28;20237;-71
2023/09/23 06:40:33;;;;;;;1.00;0.60;;;12.40;99.90;;;;;;5051902;28;20207;-71
2023/09/23 06:42:58;;;;;;;5.27;0.80;;;12.40;99.90;;;;;;5051967;28;20666;-71
2023/09/23 06:45:24;;;;;;;1.43;0.63;;;12.50;99.90;;;;;;5053149;28;20231;-71
2023/09/23 06:47:50;;;;;;;1.27;0.60;;;12.60;99.90;;;;;;5053224;28;20180;-71
2023/09/23 06:50:16;;;;;;;0.90;0.53;;;12.60;99.90;;;;;;5051972;28;20207;-71
2023/09/23 06:52:42;;;;;;;0.80;0.43;;;12.60;99.90;;;;;;5053135;28;20186;-71
2023/09/23 06:55:08;;;;;;;1.40;0.70;;;12.70;99.90;;;;;;5052874;28;20810;-71
2023/09/23 06:57:36;;;;;;;0.97;0.50;;;12.80;99.90;;;;;;5053018;28;20437;-71
2023/09/23 07:00:05;;;;;;;3.70;0.70;;;12.90;99.90;;;;;;5051804;28;20559;-71
2023/09/23 07:02:31;;;;;;;1.30;0.90;;;13.00;99.90;;;;;;5052907;28;20493;-71
2023/09/23 07:04:57;;;;;;;1.33;0.60;;;13.00;99.90;;;;;;5034916;28;20436;-71
2023/09/23 07:07:23;;;;;;;2.40;0.60;;;13.10;99.90;;;;;;5052763;28;20199;-71
2023/09/23 07:09:48;;;;;;;2.00;0.60;;;13.10;99.90;;;;;;5052702;28;20180;-71
2023/09/23 07:12:14;;;;;;;1.30;0.90;;;13.30;99.90;;;;;;5052692;28;20180;-71
2023/09/23 07:14:40;;;;;;;4.60;0.50;;;13.30;99.90;;;;;;5034826;28;20262;-70
2023/09/23 07:17:06;;;;;;;0.93;0.60;;;13.30;99.90;;;;;;5052582;28;20410;-71
2023/09/23 07:19:35;;;;;;;4.60;0.60;;;13.40;99.90;;;;;;5051916;28;20414;-71
2023/09/23 07:22:01;;;;;;;1.10;0.60;;;13.50;99.90;;;;;;5051142;28;20462;-71
2023/09/23 07:24:27;;;;;;;1.00;0.60;;;13.50;99.90;;;;;;5052375;28;20434;-71
2023/09/23 07:26:57;;;;;;;2.23;0.60;;;13.50;99.90;;;;;;5051163;28;20444;-71
2023/09/23 07:29:24;;;;;;;1.70;0.80;;;13.60;99.90;;;;;;5052352;28;20415;-71
2023/09/23 07:31:50;;;;;;;1.50;0.60;;;13.60;99.90;;;;;;5052330;28;20509;-71
2023/09/23 07:34:15;;;;;;;0.80;0.50;;;13.70;99.90;;;;;;5052215;28;20492;-71
2023/09/23 07:36:42;;;;;;;2.23;0.80;;;13.70;99.90;;;;;;5050852;28;20428;-71
2023/09/23 07:39:08;;;;;;;2.27;0.70;;;13.70;99.90;;;;;;5052108;28;20716;-71
2023/09/23 07:41:34;;;;;;;1.47;0.80;;;13.70;99.90;;;;;;5050686;28;20505;-71
2023/09/23 07:43:59;;;;;;;2.93;0.87;;;13.70;99.90;;;;;;5050832;28;20204;-71
2023/09/23 07:46:25;;;;;;;2.40;0.70;;;13.80;99.90;;;;;;5050747;28;20498;-71
2023/09/23 07:48:51;;;;;;;1.73;0.53;;;13.80;99.90;;;;;;5052067;28;20180;-71
2023/09/23 07:51:16;;;;;;;1.53;0.70;;;13.80;99.90;;;;;;5051979;28;20183;-71
2023/09/23 07:53:42;;;;;;;1.10;0.63;;;13.90;99.90;;;;;;5051762;28;20211;-71
2023/09/23 07:56:09;;;;;;;0.90;0.60;;;14.00;99.90;;;;;;5051746;28;20283;-71
2023/09/23 07:58:35;;;;;;;1.73;0.70;;;14.00;99.90;;;;;;5051847;28;20634;-71
2023/09/23 08:01:00;;;;;;;1.60;0.80;;;14.10;99.90;;;;;;5050329;28;20553;-71
2023/09/23 08:03:27;;;;;;;3.80;0.73;;;14.10;99.90;;;;;;5034001;28;20175;-71
2023/09/23 08:05:53;;;;;;;2.43;0.80;;;14.20;99.90;;;;;;5033913;28;20223;-71
2023/09/23 08:08:19;;;;;;;5.00;0.77;;;14.20;99.90;;;;;;5050234;28;20423;-71
2023/09/23 08:10:45;;;;;;;2.03;0.87;;;14.20;99.90;;;;;;5051676;28;20476;-71
2023/09/23 08:13:10;;;;;;;1.50;0.80;;;14.30;99.90;;;;;;5051537;28;20184;-71
2023/09/23 08:15:36;;;;;;;3.13;1.10;;;14.30;99.90;;;;;;5050117;28;20211;-71
2023/09/23 08:18:02;;;;;;;1.50;0.80;;;14.30;99.90;;;;;;5051433;28;20673;-71
2023/09/23 08:20:28;;;;;;;11.50;0.97;;;14.40;99.90;;;;;;5050268;28;20215;-71
2023/09/23 08:22:53;;;;;;;2.10;0.80;;;14.50;99.90;;;;;;5051385;28;20265;-71
2023/09/23 08:25:19;;;;;;;2.77;1.20;;;14.50;99.90;;;;;;5051348;28;20695;-71
2023/09/23 08:27:45;;;;;;;1.33;0.67;;;14.70;99.90;;;;;;5051453;28;20667;-71
2023/09/23 08:30:12;;;;;;;2.03;0.70;;;14.70;99.90;;;;;;5049228;28;20415;-71
2023/09/23 08:32:38;;;;;;;2.60;1.07;;;14.70;99.90;;;;;;5049948;28;20424;-71
2023/09/23 08:35:07;;;;;;;1.23;0.87;;;14.90;99.90;;;;;;5033489;28;20519;-71
2023/09/23 08:37:36;;;;;;;4.87;0.80;;;15.00;99.90;;;;;;5050053;28;20425;-71
2023/09/23 08:40:10;;;;;;;4.13;0.90;;;15.10;99.90;;;;;;5049886;28;20431;-71
2023/09/23 08:42:38;;;;;;;2.20;1.10;;;15.10;99.90;;;;;;5051280;28;20420;-71
2023/09/23 08:45:06;;;;;;;2.23;1.00;;;15.30;99.90;;;;;;5051266;28;20429;-71
2023/09/23 08:47:33;;;;;;;2.40;0.70;;;15.30;99.90;;;;;;5051747;28;20467;-71
2023/09/23 08:49:58;;;;;;;4.17;1.50;;;15.50;99.90;;;;;;5049958;28;20875;-71
2023/09/23 08:52:26;;;;;;;2.50;0.93;;;15.60;99.90;;;;;;5051107;28;20561;-71
2023/09/23 08:54:52;;;;;;;1.77;0.90;;;15.70;99.90;;;;;;5049841;28;20223;-71
2023/09/23 08:57:19;;;;;;;2.27;1.20;;;15.70;99.90;;;;;;5051117;28;20574;-72
2023/09/23 08:59:45;;;;;;;2.07;1.30;;;15.80;99.90;;;;;;5051072;28;20177;-71
2023/09/23 09:02:16;;;;;;;3.10;0.83;;;15.80;99.90;;;;;;5050972;28;20468;-71
2023/09/23 09:04:42;;;;;;;1.73;0.87;;;15.90;99.90;;;;;;5049845;28;20210;-71
2023/09/23 09:07:08;;;;;;;4.87;0.90;;;16.00;99.90;;;;;;5050978;28;20413;-71
2023/09/23 09:09:37;;;;;;;7.93;1.50;;;16.20;99.90;;;;;;5049831;28;20182;-71
2023/09/23 09:12:04;;;;;;;4.03;1.60;;;16.40;99.90;;;;;;5049724;28;20347;-71
2023/09/23 09:14:32;;;;;;;3.50;1.00;;;16.70;99.90;;;;;;5050957;28;20782;-71
2023/09/23 09:16:57;;;;;;;2.23;0.70;;;17.00;99.90;;;;;;5050876;28;20937;-71
2023/09/23 09:19:23;;;;;;;2.20;1.20;;;17.20;99.90;;;;;;5049648;28;20478;-71
2023/09/23 09:21:50;;;;;;;2.70;1.27;;;17.40;99.90;;;;;;5050793;28;20379;-71
2023/09/23 09:24:17;;;;;;;3.27;1.30;;;17.60;99.90;;;;;;5050781;28;20203;-71
2023/09/23 09:26:44;;;;;;;2.93;0.90;;;17.50;99.90;;;;;;5050884;28;20425;-71
2023/09/23 09:29:10;;;;;;;3.77;0.90;;;17.50;99.90;;;;;;5050748;28;20432;-71
2023/09/23 09:31:38;;;;;;;2.03;0.80;;;17.60;99.90;;;;;;5051038;28;20813;-71
2023/09/23 09:34:11;;;;;;;1.40;0.90;;;18.10;99.90;;;;;;5050638;28;20441;-71
2023/09/23 09:36:40;;;;;;;1.63;0.80;;;19.00;99.90;;;;;;5050674;28;20666;-71
2023/09/23 09:39:10;;;;;;;2.90;1.10;;;19.40;99.90;;;;;;5050693;28;20418;-71
2023/09/23 09:41:51;;;;;;;1.93;0.80;;;20.10;99.90;;;;;;5051179;28;20465;-72
2023/09/23 09:44:21;;;;;;;1.87;1.13;;;20.40;99.90;;;;;;5054370;28;21194;-72
2023/09/23 09:46:48;;;;;;;2.80;0.70;;;20.80;99.90;;;;;;5053093;28;20417;-72
2023/09/23 09:49:16;;;;;;;1.80;1.30;;;21.00;99.90;;;;;;5054191;28;20477;-72
2023/09/23 09:51:43;;;;;;;3.13;1.10;;;20.80;97.20;;;;;;5054284;28;20527;-72
2023/09/23 09:54:11;;;;;;;2.70;0.80;;;21.20;98.30;;;;;;5052813;28;20498;-72
2023/09/23 09:56:39;;;;;;;2.03;1.07;;;21.30;97.80;;;;;;5052618;28;20540;-72
2023/09/23 09:59:05;;;;;;;1.70;1.03;;;21.20;97.40;;;;;;5054194;28;20788;-72
2023/09/23 10:01:30;;;;;;;2.57;0.90;;;21.30;96.10;;;;;;5052685;28;20458;-72
2023/09/23 10:03:56;;;;;;;7.83;1.00;;;20.90;96.50;;;;;;5052532;28;20200;-72
2023/09/23 10:06:22;;;;;;;2.10;0.80;;;21.40;97.20;;;;;;5053954;28;20229;-72
2023/09/23 10:08:49;;;;;;;2.43;1.23;;;22.00;97.40;;;;;;5053914;28;20657;-72
2023/09/23 10:11:16;;;;;;;3.43;0.80;;;22.50;95.70;;;;;;5052548;28;20431;-72
2023/09/23 10:13:42;;;;;;;4.10;1.23;;;22.60;92.60;;;;;;5053767;28;20414;-71
2023/09/23 10:16:19;;;;;;;1.93;0.80;;;22.90;93.70;;;;;;5052482;28;20420;-71
2023/09/23 10:18:59;;;;;;;2.47;0.90;;;23.00;94.20;;;;;;5053721;28;20414;-71
2023/09/23 10:21:29;;;;;;;1.27;0.90;;;23.40;94.20;;;;;;5053576;28;20466;-71
2023/09/23 10:23:56;;;;;;;3.20;1.13;;;23.80;94.50;;;;;;5052318;28;20817;-72
2023/09/23 10:26:25;;;;;;;2.30;1.00;;;24.10;92.20;;;;;;5053605;28;20730;-72
2023/09/23 10:29:01;;;;;;;1.40;0.83;;;23.80;92.20;;;;;;5053499;28;20881;-72
2023/09/23 10:31:29;;;;;;;5.50;1.20;;;23.70;91.50;;;;;;5053755;28;20426;-72
2023/09/23 10:33:55;;;;;;;6.70;0.83;;;23.60;91.90;;;;;;5053515;28;20442;-72
2023/09/23 10:36:22;;;;;;;1.83;0.83;;;23.50;92.10;;;;;;5052134;28;20428;-72
2023/09/23 10:38:48;;;;;;;4.40;0.97;;;23.80;91.00;;;;;;5052070;28;20212;-72
2023/09/23 10:41:14;;;;;;;1.10;0.80;;;23.60;91.10;;;;;;5051929;28;21016;-71
2023/09/23 10:43:40;;;;;;;2.93;1.13;;;24.00;91.30;;;;;;5053203;28;20511;-72
2023/09/23 10:46:06;;;;;;;2.03;1.10;;;23.80;90.70;;;;;;5052057;28;20262;-72
2023/09/23 10:48:32;;;;;;;1.20;0.80;;;23.30;90.90;;;;;;5053188;28;20549;-72
2023/09/23 10:51:00;;;;;;;2.13;1.00;;;23.50;88.50;;;;;;5053098;28;20942;-71
2023/09/23 10:53:29;;;;;;;2.10;1.00;;;23.00;90.30;;;;;;5052117;28;20472;-72
2023/09/23 10:55:55;;;;;;;2.40;0.80;;;22.80;91.90;;;;;;5052740;28;20470;-71
2023/09/23 10:58:21;;;;;;;7.77;1.10;;;23.30;91.60;;;;;;5052974;28;20423;-72
2023/09/23 11:00:48;;;;;;;3.83;0.90;;;23.50;90.00;;;;;;5052984;28;20273;-71
2023/09/23 11:03:18;;;;;;;2.70;1.40;;;23.80;90.70;;;;;;5053134;28;20537;-71
2023/09/23 11:05:44;;;;;;;2.20;0.93;;;23.60;90.10;;;;;;5051561;28;20448;-72
2023/09/23 11:08:12;;;;;;;1.47;0.90;;;23.20;89.00;;;;;;5052838;28;20409;-72
2023/09/23 11:10:49;;;;;;;2.67;0.97;;;23.00;90.40;;;;;;5051246;28;20429;-72
2023/09/23 11:13:15;;;;;;;2.77;1.00;;;23.20;90.70;;;;;;5052797;28;20829;-72
2023/09/23 11:15:45;;;;;;;1.27;0.80;;;22.90;90.10;;;;;;5051261;28;20452;-72
2023/09/23 11:18:16;;;;;;;2.40;0.60;;;23.00;91.40;;;;;;5052575;28;20419;-72
2023/09/23 11:20:45;;;;;;;2.70;0.83;;;23.30;89.90;;;;;;5052590;28;20464;-72
2023/09/23 11:23:11;;;;;;;3.93;0.90;;;22.40;90.80;;;;;;5052441;28;20422;-72
2023/09/23 11:25:41;;;;;;;3.67;1.10;;;22.10;91.70;;;;;;5052407;28;20431;-72
2023/09/23 11:28:27;;;;;;;4.30;0.93;;;21.90;91.40;;;;;;5052462;28;20414;-72
2023/09/23 11:30:55;;;;;;;2.20;0.87;;;21.60;90.80;;;;;;5037056;28;20431;-72
2023/09/23 11:33:21;;;;;;;1.40;0.90;;;22.30;91.90;;;;;;5052310;28;20418;-72
2023/09/23 11:35:47;;;;;;;3.60;0.90;;;22.70;91.10;;;;;;5052523;28;20517;-72
2023/09/23 11:38:13;;;;;;;1.33;0.80;;;23.00;90.40;;;;;;5052243;28;20426;-72
2023/09/23 11:40:40;;;;;;;1.47;1.00;;;23.10;90.10;;;;;;5050659;28;20481;-72
2023/09/23 11:43:06;;;;;;;1.37;0.87;;;23.00;89.80;;;;;;5052089;28;20490;-72
2023/09/23 11:45:34;;;;;;;2.90;0.80;;;22.90;88.90;;;;;;5052012;28;20526;-72
2023/09/23 11:48:03;;;;;;;1.50;0.70;;;22.80;89.70;;;;;;5050777;28;20490;-72
2023/09/23 11:50:29;;;;;;;2.23;0.93;;;22.60;90.80;;;;;;5050781;28;20431;-72
2023/09/23 11:52:55;;;;;;;2.50;1.10;;;22.50;90.60;;;;;;5050724;28;20508;-72
2023/09/23 11:55:22;;;;;;;2.10;0.90;;;22.50;87.50;;;;;;5052030;28;20465;-72
2023/09/23 11:57:48;;;;;;;2.70;1.00;;;22.30;89.00;;;;;;5052041;28;20602;-72
2023/09/23 12:00:15;;;;;;;1.20;0.90;;;22.30;90.00;;;;;;5051779;28;20509;-72
2023/09/23 12:02:41;;;;;;;1.50;1.10;;;22.50;91.20;;;;;;5050461;28;20419;-72
2023/09/23 12:05:08;;;;;;;6.27;1.30;;;22.40;90.90;;;;;;5050064;28;20854;-72
2023/09/23 12:07:35;;;;;;;3.17;0.77;;;22.10;91.40;;;;;;5050375;28;20431;-72
2023/09/23 12:10:04;;;;;;;2.27;1.00;;;22.20;88.90;;;;;;5051677;28;20418;-72
2023/09/23 12:12:31;;;;;;;2.80;1.23;;;21.80;90.40;;;;;;5050448;28;20839;-72
2023/09/23 12:14:56;;;;;;;1.50;1.07;;;21.80;90.90;;;;;;5051530;28;20466;-72
2023/09/23 12:17:22;;;;;;;1.23;0.80;;;22.20;90.40;;;;;;5050353;28;20457;-72
2023/09/23 12:19:48;;;;;;;1.70;0.90;;;22.30;90.60;;;;;;5050122;28;20745;-72
2023/09/23 12:22:15;;;;;;;2.87;1.23;;;22.30;90.40;;;;;;5033613;28;20582;-72
2023/09/23 12:24:42;;;;;;;1.30;0.73;;;22.30;90.00;;;;;;5051684;28;20271;-72
2023/09/23 12:27:08;;;;;;;3.93;0.90;;;22.40;90.00;;;;;;5050045;28;20422;-72
2023/09/23 12:29:34;;;;;;;1.10;0.73;;;22.40;90.90;;;;;;5051457;28;20497;-72
2023/09/23 12:32:00;;;;;;;3.00;1.23;;;22.40;90.20;;;;;;5051481;28;20425;-72
2023/09/23 12:34:27;;;;;;;2.70;0.90;;;22.30;88.40;;;;;;5049852;28;20455;-72
2023/09/23 12:36:53;;;;;;;1.63;0.90;;;22.50;90.60;;;;;;5049961;28;20426;-72
2023/09/23 12:39:18;;;;;;;2.00;1.00;;;22.60;90.10;;;;;;5050043;28;20911;-72
2023/09/23 12:41:44;;;;;;;1.10;1.00;;;22.50;88.30;;;;;;5049967;28;20466;-72
2023/09/23 12:44:09;;;;;;;1.73;0.50;;;22.00;86.60;;;;;;5049970;28;20230;-72
2023/09/23 12:46:35;;;;;;;1.10;0.60;;;20.70;89.90;;;;;;5049793;28;20188;-72